createdAt,value
2022-12-24T00:00:44.609Z,100.00
2022-12-24T00:03:12.578Z,100.00
2022-12-24T00:05:40.468Z,100.00
2022-12-24T00:08:08.455Z,100.00
2022-12-24T00:10:36.363Z,100.00
2022-12-24T00:13:05.906Z,100.00
2022-12-24T00:15:33.776Z,100.00
2022-12-24T00:18:01.663Z,100.00
2022-12-24T00:20:29.908Z,100.00
2022-12-24T00:22:58.202Z,100.00
2022-12-24T00:25:26.066Z,100.00
2022-12-24T00:27:53.933Z,100.00
2022-12-24T00:30:23.382Z,100.00
2022-12-24T00:32:51.321Z,100.00
2022-12-24T00:35:19.237Z,100.00
2022-12-24T00:37:48.847Z,100.00
2022-12-24T00:40:16.988Z,100.00
2022-12-24T00:42:45.207Z,100.00
2022-12-24T00:45:14.137Z,100.00
2022-12-24T00:47:44.088Z,100.00
2022-12-24T00:50:12.155Z,100.00
2022-12-24T00:52:40.113Z,100.00
2022-12-24T00:55:09.262Z,100.00
2022-12-24T00:57:37.251Z,100.00
2022-12-24T01:00:06.782Z,100.00
2022-12-24T01:02:34.792Z,100.00
2022-12-24T01:05:12.021Z,100.00
2022-12-24T01:07:42.199Z,100.00
2022-12-24T01:10:12.634Z,100.00
2022-12-24T01:12:40.864Z,100.00
2022-12-24T01:15:09.566Z,100.00
2022-12-24T01:17:37.674Z,100.00
2022-12-24T01:20:09.353Z,100.00
2022-12-24T01:22:37.538Z,100.00
2022-12-24T01:25:06.185Z,100.00
2022-12-24T01:27:34.095Z,100.00
2022-12-24T01:30:02.247Z,100.00
2022-12-24T01:32:30.565Z,100.00
2022-12-24T01:34:58.756Z,100.00
2022-12-24T01:37:28.300Z,100.00
2022-12-24T01:40:16.987Z,100.00
2022-12-24T01:43:05.922Z,100.00
2022-12-24T01:45:47.065Z,100.00
2022-12-24T01:48:23.340Z,100.00
2022-12-24T01:50:56.545Z,100.00
2022-12-24T01:53:26.047Z,100.00
2022-12-24T01:55:56.142Z,100.00
2022-12-24T01:58:26.170Z,100.00
2022-12-24T02:00:54.167Z,100.00
2022-12-24T02:03:22.612Z,100.00
2022-12-24T02:05:53.541Z,100.00
2022-12-24T02:08:21.692Z,100.00
2022-12-24T02:10:51.897Z,100.00
2022-12-24T02:13:22.472Z,100.00
2022-12-24T02:16:07.302Z,100.00
2022-12-24T02:18:42.270Z,100.00
2022-12-24T02:21:49.408Z,100.00
2022-12-24T02:24:55.642Z,100.00
2022-12-24T02:27:34.892Z,100.00
2022-12-24T02:30:15.547Z,100.00
2022-12-24T02:32:59.454Z,100.00
2022-12-24T02:35:35.959Z,100.00
2022-12-24T02:38:09.077Z,100.00
2022-12-24T02:40:41.915Z,100.00
2022-12-24T02:43:14.874Z,100.00
2022-12-24T02:45:47.440Z,100.00
2022-12-24T02:48:18.577Z,100.00
2022-12-24T02:51:02.537Z,100.00
2022-12-24T02:53:31.294Z,100.00
2022-12-24T02:56:16.957Z,100.00
2022-12-24T02:58:57.142Z,100.00
2022-12-24T03:01:39.722Z,100.00
2022-12-24T03:04:16.588Z,100.00
2022-12-24T03:06:51.523Z,100.00
2022-12-24T03:09:26.721Z,100.00
2022-12-24T03:12:00.672Z,100.00
2022-12-24T03:14:30.661Z,100.00
2022-12-24T03:17:00.621Z,100.00
2022-12-24T03:19:28.945Z,100.00
2022-12-24T03:21:59.326Z,100.00
2022-12-24T03:24:27.295Z,100.00
2022-12-24T03:26:55.257Z,100.00
2022-12-24T03:29:23.312Z,100.00
2022-12-24T03:31:54.492Z,100.00
2022-12-24T03:34:24.013Z,100.00
2022-12-24T03:36:52.499Z,100.00
2022-12-24T03:39:20.318Z,100.00
2022-12-24T03:41:48.347Z,100.00
2022-12-24T03:44:16.293Z,100.00
2022-12-24T03:46:44.247Z,100.00
2022-12-24T03:49:12.047Z,100.00
2022-12-24T03:51:41.417Z,100.00
2022-12-24T03:54:09.193Z,100.00
2022-12-24T03:56:37.037Z,100.00
2022-12-24T03:59:04.865Z,100.00
2022-12-24T04:01:32.791Z,100.00
2022-12-24T04:04:00.677Z,100.00
2022-12-24T04:06:28.567Z,100.00
2022-12-24T04:08:59.288Z,100.00
2022-12-24T04:11:27.075Z,100.00
2022-12-24T04:13:54.961Z,100.00
2022-12-24T04:16:22.869Z,100.00
2022-12-24T04:18:50.938Z,100.00
2022-12-24T04:21:18.852Z,100.00
2022-12-24T04:23:47.961Z,100.00
2022-12-24T04:26:17.757Z,100.00
2022-12-24T04:28:45.543Z,100.00
2022-12-24T04:31:16.107Z,100.00
2022-12-24T04:33:44.339Z,100.00
2022-12-24T04:36:16.936Z,100.00
2022-12-24T04:38:45.189Z,100.00
2022-12-24T04:41:23.785Z,100.00
2022-12-24T04:43:53.871Z,100.00
2022-12-24T04:46:23.900Z,100.00
2022-12-24T04:48:54.044Z,100.00
2022-12-24T04:51:22.288Z,100.00
2022-12-24T04:53:50.463Z,100.00
2022-12-24T04:56:22.531Z,100.00
2022-12-24T04:58:50.926Z,100.00
2022-12-24T05:01:20.698Z,100.00
2022-12-24T05:03:49.293Z,100.00
2022-12-24T05:06:20.699Z,100.00
2022-12-24T05:08:49.637Z,100.00
2022-12-24T05:11:19.797Z,100.00
2022-12-24T05:13:48.356Z,100.00
2022-12-24T05:16:18.817Z,100.00
2022-12-24T05:18:46.778Z,100.00
2022-12-24T05:21:17.873Z,100.00
2022-12-24T05:24:03.664Z,100.00
2022-12-24T05:26:37.476Z,100.00
2022-12-24T05:29:06.674Z,100.00
2022-12-24T05:31:36.045Z,100.00
2022-12-24T05:34:04.050Z,100.00
2022-12-24T05:36:31.987Z,100.00
2022-12-24T05:39:00.172Z,100.00
2022-12-24T05:41:28.120Z,100.00
2022-12-24T05:43:57.407Z,100.00
2022-12-24T05:46:26.683Z,100.00
2022-12-24T05:48:54.526Z,100.00
2022-12-24T05:51:24.101Z,100.00
2022-12-24T05:53:52.845Z,100.00
2022-12-24T05:56:22.840Z,100.00
2022-12-24T05:58:51.107Z,100.00
2022-12-24T06:01:20.830Z,100.00
2022-12-24T06:03:49.676Z,100.00
2022-12-24T06:06:21.127Z,100.00
2022-12-24T06:08:49.737Z,100.00
2022-12-24T06:11:19.756Z,100.00
2022-12-24T06:13:47.853Z,100.00
2022-12-24T06:16:18.538Z,100.00
2022-12-24T06:18:48.042Z,100.00
2022-12-24T06:21:16.719Z,100.00
2022-12-24T06:23:46.031Z,100.00
2022-12-24T06:26:15.652Z,100.00
2022-12-24T06:28:44.513Z,100.00
2022-12-24T06:31:15.775Z,100.00
2022-12-24T06:33:44.701Z,100.00
2022-12-24T06:36:18.161Z,100.00
2022-12-24T06:38:46.866Z,100.00
2022-12-24T06:41:15.142Z,100.00
2022-12-24T06:43:45.760Z,100.00
2022-12-24T06:46:13.834Z,100.00
2022-12-24T06:48:41.769Z,100.00
2022-12-24T06:51:09.666Z,100.00
2022-12-24T06:53:39.072Z,100.00
2022-12-24T06:56:08.467Z,100.00
2022-12-24T06:58:37.350Z,100.00
2022-12-24T07:01:08.502Z,100.00
2022-12-24T07:03:36.744Z,100.00
2022-12-24T07:06:04.793Z,100.00
2022-12-24T07:08:34.293Z,100.00
2022-12-24T07:11:03.648Z,100.00
2022-12-24T07:13:32.220Z,100.00
2022-12-24T07:16:00.616Z,100.00
2022-12-24T07:18:29.189Z,100.00
2022-12-24T07:20:57.326Z,100.00
2022-12-24T07:23:25.709Z,100.00
2022-12-24T07:25:53.574Z,100.00
2022-12-24T07:28:27.740Z,100.00
2022-12-24T07:30:56.289Z,100.00
2022-12-24T07:33:24.467Z,100.00
2022-12-24T07:36:00.323Z,100.00
2022-12-24T07:38:28.628Z,100.00
2022-12-24T07:40:57.268Z,100.00
2022-12-24T07:43:27.114Z,100.00
2022-12-24T07:45:56.798Z,100.00
2022-12-24T07:48:24.657Z,100.00
2022-12-24T07:50:52.806Z,100.00
2022-12-24T07:53:21.146Z,100.00
2022-12-24T07:55:48.941Z,100.00
2022-12-24T07:58:16.746Z,100.00
2022-12-24T08:00:46.023Z,100.00
2022-12-24T08:03:18.698Z,100.00
2022-12-24T08:05:47.156Z,100.00
2022-12-24T08:08:15.164Z,100.00
2022-12-24T08:10:44.030Z,100.00
2022-12-24T08:13:11.920Z,100.00
2022-12-24T08:15:40.171Z,100.00
2022-12-24T08:18:09.804Z,100.00
2022-12-24T08:20:39.463Z,100.00
2022-12-24T08:23:08.388Z,100.00
2022-12-24T08:25:36.950Z,100.00
2022-12-24T08:28:05.056Z,100.00
2022-12-24T08:30:32.975Z,100.00
2022-12-24T08:33:00.970Z,100.00
2022-12-24T08:35:30.339Z,100.00
2022-12-24T08:37:58.413Z,100.00
2022-12-24T08:40:26.473Z,100.00
2022-12-24T08:42:54.322Z,100.00
2022-12-24T08:45:22.621Z,100.00
2022-12-24T08:47:50.557Z,100.00
2022-12-24T08:50:18.576Z,100.00
2022-12-24T08:52:47.824Z,100.00
2022-12-24T08:55:15.635Z,100.00
2022-12-24T08:57:43.607Z,100.00
2022-12-24T09:00:14.542Z,100.00
2022-12-24T09:02:42.491Z,100.00
2022-12-24T09:05:10.986Z,100.00
2022-12-24T09:07:38.755Z,100.00
2022-12-24T09:10:09.913Z,100.00
2022-12-24T09:12:38.223Z,100.00
2022-12-24T09:15:08.332Z,100.00
2022-12-24T09:17:36.340Z,100.00
2022-12-24T09:20:04.984Z,100.00
2022-12-24T09:22:32.754Z,100.00
2022-12-24T09:25:00.522Z,100.00
2022-12-24T09:27:31.305Z,100.00
2022-12-24T09:29:59.164Z,100.00
2022-12-24T09:32:27.242Z,100.00
2022-12-24T09:34:55.147Z,100.00
2022-12-24T09:37:23.061Z,100.00
2022-12-24T09:39:50.894Z,100.00
2022-12-24T09:42:29.740Z,100.00
2022-12-24T09:45:04.533Z,100.00
2022-12-24T09:47:39.694Z,100.00
2022-12-24T09:50:25.781Z,100.00
2022-12-24T09:52:54.733Z,100.00
2022-12-24T09:55:28.395Z,100.00
2022-12-24T09:57:59.162Z,100.00
2022-12-24T10:00:30.558Z,100.00
2022-12-24T10:02:59.020Z,100.00
2022-12-24T10:05:38.962Z,100.00
2022-12-24T10:08:19.765Z,100.00
2022-12-24T10:10:55.349Z,100.00
2022-12-24T10:13:35.836Z,100.00
2022-12-24T10:16:17.802Z,100.00
2022-12-24T10:18:56.854Z,100.00
2022-12-24T10:21:33.707Z,100.00
2022-12-24T10:24:08.077Z,100.00
2022-12-24T10:26:54.073Z,100.00
2022-12-24T10:29:26.139Z,100.00
2022-12-24T10:32:00.473Z,100.00
2022-12-24T10:34:34.899Z,100.00
2022-12-24T10:37:04.558Z,100.00
2022-12-24T10:39:32.480Z,100.00
2022-12-24T10:42:02.655Z,100.00
2022-12-24T10:44:34.508Z,100.00
2022-12-24T10:47:06.650Z,100.00
2022-12-24T10:49:41.511Z,100.00
2022-12-24T10:52:13.879Z,100.00
2022-12-24T10:55:06.583Z,100.00
2022-12-24T10:57:35.983Z,100.00
2022-12-24T11:00:06.365Z,100.00
2022-12-24T11:02:37.847Z,100.00
2022-12-24T11:05:27.860Z,100.00
2022-12-24T11:08:02.285Z,100.00
2022-12-24T11:10:31.067Z,100.00
2022-12-24T11:13:27.652Z,100.00
2022-12-24T11:15:47.531Z,100.00
2022-12-24T11:18:17.180Z,100.00
2022-12-24T11:20:52.185Z,100.00
2022-12-24T11:23:20.619Z,100.00
2022-12-24T11:25:51.197Z,100.00
2022-12-24T11:28:23.305Z,100.00
2022-12-24T11:31:03.920Z,100.00
2022-12-24T11:33:46.133Z,100.00
2022-12-24T11:36:14.962Z,100.00
2022-12-24T11:38:42.860Z,100.00
2022-12-24T11:41:12.983Z,100.00
2022-12-24T11:43:46.294Z,100.00
2022-12-24T11:46:17.699Z,100.00
2022-12-24T11:48:47.973Z,100.00
2022-12-24T11:51:25.496Z,100.00
2022-12-24T11:54:05.338Z,100.00
2022-12-24T11:56:40.770Z,100.00
2022-12-24T11:59:20.039Z,100.00
2022-12-24T12:01:55.698Z,100.00
2022-12-24T12:04:29.045Z,100.00
2022-12-24T12:07:00.902Z,100.00
2022-12-24T12:09:32.544Z,100.00
2022-12-24T12:12:06.315Z,100.00
2022-12-24T12:14:39.344Z,100.00
2022-12-24T12:17:17.491Z,100.00
2022-12-24T12:19:50.547Z,100.00
2022-12-24T12:22:29.836Z,100.00
2022-12-24T12:25:01.101Z,100.00
2022-12-24T12:27:35.129Z,100.00
2022-12-24T12:30:04.814Z,100.00
2022-12-24T12:32:42.137Z,100.00
2022-12-24T12:35:22.127Z,100.00
2022-12-24T12:37:57.495Z,100.00
2022-12-24T12:40:44.001Z,100.00
2022-12-24T12:43:21.583Z,100.00
2022-12-24T12:45:56.299Z,100.00
2022-12-24T12:48:47.629Z,99.65
2022-12-24T12:51:25.670Z,99.23
2022-12-24T12:54:13.151Z,99.41
2022-12-24T12:56:47.060Z,99.51
2022-12-24T12:59:21.766Z,99.74
2022-12-24T13:01:58.283Z,100.00
2022-12-24T13:04:55.964Z,98.52
2022-12-24T13:07:52.114Z,98.68
2022-12-24T13:10:44.079Z,98.19
2022-12-24T13:13:31.815Z,98.17
2022-12-24T13:16:13.322Z,98.25
2022-12-24T13:19:00.237Z,97.61
2022-12-24T13:21:31.293Z,98.98
2022-12-24T13:24:19.813Z,97.38
2022-12-24T13:27:06.702Z,95.88
2022-12-24T13:29:52.820Z,97.18
2022-12-24T13:32:49.603Z,96.20
2022-12-24T13:35:59.108Z,95.16
2022-12-24T13:38:43.646Z,96.01
2022-12-24T13:41:50.444Z,95.65
2022-12-24T13:44:21.276Z,96.41
2022-12-24T13:46:52.233Z,96.33
2022-12-24T13:49:22.900Z,96.31
2022-12-24T13:51:51.107Z,96.52
2022-12-24T13:54:25.543Z,95.57
2022-12-24T13:56:55.103Z,95.09
2022-12-24T13:59:38.670Z,95.71
2022-12-24T14:02:19.606Z,95.37
2022-12-24T14:04:52.401Z,94.54
2022-12-24T14:07:21.679Z,95.54
2022-12-24T14:09:52.149Z,95.84
2022-12-24T14:12:51.699Z,95.43
2022-12-24T14:15:53.202Z,95.28
2022-12-24T14:18:23.620Z,95.84
2022-12-24T14:20:53.916Z,95.89
2022-12-24T14:23:32.787Z,95.24
2022-12-24T14:26:02.518Z,95.92
2022-12-24T14:28:39.486Z,95.50
2022-12-24T14:31:14.900Z,96.35
2022-12-24T14:33:43.254Z,96.08
2022-12-24T14:36:13.813Z,96.03
2022-12-24T14:38:43.595Z,96.67
2022-12-24T14:41:31.334Z,95.67
2022-12-24T14:44:09.624Z,96.02
2022-12-24T14:46:44.021Z,96.33
2022-12-24T14:49:24.106Z,95.59
2022-12-24T14:52:04.509Z,95.68
2022-12-24T14:54:38.911Z,95.91
2022-12-24T14:57:21.644Z,94.98
2022-12-24T14:59:53.307Z,95.95
2022-12-24T15:02:44.377Z,94.46
2022-12-24T15:05:16.349Z,95.51
2022-12-24T15:07:48.692Z,95.27
2022-12-24T15:10:27.258Z,94.89
2022-12-24T15:12:57.179Z,95.81
2022-12-24T15:15:26.463Z,95.71
2022-12-24T15:17:55.689Z,95.69
2022-12-24T15:20:26.973Z,95.84
2022-12-24T15:22:57.337Z,96.35
2022-12-24T15:25:28.103Z,96.21
2022-12-24T15:27:56.298Z,96.26
2022-12-24T15:30:28.899Z,95.76
2022-12-24T15:32:58.998Z,95.71
2022-12-24T15:35:55.895Z,95.23
2022-12-24T15:38:27.948Z,96.22
2022-12-24T15:40:56.314Z,95.79
2022-12-24T15:43:24.750Z,95.95
2022-12-24T15:45:54.572Z,95.97
2022-12-24T15:48:25.687Z,96.27
2022-12-24T15:50:56.630Z,96.18
2022-12-24T15:53:29.594Z,96.15
2022-12-24T15:56:03.731Z,96.03
2022-12-24T15:58:33.721Z,96.06
2022-12-24T16:01:23.301Z,96.30
2022-12-24T16:04:00.469Z,95.89
2022-12-24T16:06:29.480Z,97.04
2022-12-24T16:08:58.887Z,96.57
2022-12-24T16:11:34.631Z,97.10
2022-12-24T16:14:11.978Z,96.99
2022-12-24T16:16:43.993Z,96.83
2022-12-24T16:19:19.564Z,96.82
2022-12-24T16:21:51.408Z,96.96
2022-12-24T16:24:23.765Z,97.12
2022-12-24T16:26:51.956Z,96.94
2022-12-24T16:29:20.470Z,97.24
2022-12-24T16:31:52.937Z,96.94
2022-12-24T16:34:30.113Z,97.04
2022-12-24T16:36:59.234Z,97.28
2022-12-24T16:39:31.190Z,97.64
2022-12-24T16:42:18.429Z,97.46
2022-12-24T16:44:46.993Z,97.60
2022-12-24T16:47:24.998Z,97.41
2022-12-24T16:49:53.275Z,97.54
2022-12-24T16:52:23.426Z,97.50
2022-12-24T16:54:51.595Z,97.58
2022-12-24T16:57:20.193Z,97.86
2022-12-24T16:59:48.332Z,97.72
2022-12-24T17:02:19.991Z,97.52
2022-12-24T17:04:49.012Z,97.39
2022-12-24T17:07:19.801Z,97.40
2022-12-24T17:09:47.629Z,98.00
2022-12-24T17:12:15.979Z,98.01
2022-12-24T17:14:43.985Z,97.98
2022-12-24T17:17:23.807Z,97.98
2022-12-24T17:19:52.161Z,97.98
2022-12-24T17:22:20.300Z,98.36
2022-12-24T17:24:48.656Z,97.92
2022-12-24T17:27:16.896Z,98.13
2022-12-24T17:29:44.832Z,97.95
2022-12-24T17:32:12.652Z,97.88
2022-12-24T17:34:42.483Z,98.58
2022-12-24T17:37:10.468Z,98.32
2022-12-24T17:39:38.405Z,98.58
2022-12-24T17:42:06.487Z,98.73
2022-12-24T17:44:34.609Z,98.39
2022-12-24T17:47:05.122Z,98.81
2022-12-24T17:49:33.771Z,98.69
2022-12-24T17:52:04.797Z,99.23
2022-12-24T17:54:32.791Z,98.77
2022-12-24T17:57:00.643Z,99.46
2022-12-24T17:59:28.995Z,98.95
2022-12-24T18:01:57.036Z,98.87
2022-12-24T18:04:24.884Z,99.50
2022-12-24T18:06:57.842Z,99.11
2022-12-24T18:09:31.492Z,98.96
2022-12-24T18:11:59.366Z,99.10
2022-12-24T18:14:28.262Z,99.04
2022-12-24T18:16:56.058Z,99.68
2022-12-24T18:19:24.062Z,99.52
2022-12-24T18:21:52.115Z,99.54
2022-12-24T18:24:20.485Z,100.00
2022-12-24T18:26:49.902Z,100.00
2022-12-24T18:29:18.409Z,100.00
2022-12-24T18:31:46.321Z,100.00
2022-12-24T18:34:16.250Z,100.00
2022-12-24T18:36:46.239Z,100.00
2022-12-24T18:39:17.577Z,100.00
2022-12-24T18:41:45.405Z,100.00
2022-12-24T18:44:18.108Z,100.00
2022-12-24T18:46:48.945Z,100.00
2022-12-24T18:49:16.840Z,100.00
2022-12-24T18:51:44.682Z,100.00
2022-12-24T18:54:12.611Z,100.00
2022-12-24T18:56:40.496Z,100.00
2022-12-24T18:59:08.352Z,100.00
2022-12-24T19:01:37.736Z,100.00
2022-12-24T19:04:05.868Z,100.00
2022-12-24T19:06:33.800Z,100.00
2022-12-24T19:09:02.108Z,100.00
2022-12-24T19:11:32.509Z,100.00
2022-12-24T19:14:00.646Z,100.00
2022-12-24T19:16:28.949Z,100.00
2022-12-24T19:18:58.824Z,100.00
2022-12-24T19:21:26.935Z,100.00
2022-12-24T19:23:54.903Z,100.00
2022-12-24T19:26:23.393Z,100.00
2022-12-24T19:28:51.931Z,100.00
2022-12-24T19:31:22.408Z,100.00
2022-12-24T19:33:52.516Z,100.00
2022-12-24T19:36:25.718Z,100.00
2022-12-24T19:38:54.061Z,100.00
2022-12-24T19:41:25.423Z,100.00
2022-12-24T19:43:55.541Z,100.00
2022-12-24T19:46:25.426Z,100.00
2022-12-24T19:48:55.023Z,100.00
2022-12-24T19:51:25.841Z,100.00
2022-12-24T19:53:55.155Z,100.00
2022-12-24T19:56:24.640Z,100.00
2022-12-24T19:58:55.529Z,100.00
2022-12-24T20:01:25.707Z,100.00
2022-12-24T20:03:54.784Z,100.00
2022-12-24T20:06:27.569Z,100.00
2022-12-24T20:09:00.260Z,100.00
2022-12-24T20:11:29.527Z,100.00
2022-12-24T20:13:59.371Z,100.00
2022-12-24T20:16:27.972Z,100.00
2022-12-24T20:18:57.479Z,100.00
2022-12-24T20:21:27.612Z,100.00
2022-12-24T20:23:55.765Z,100.00
2022-12-24T20:26:26.758Z,100.00
2022-12-24T20:28:55.095Z,100.00
2022-12-24T20:31:24.786Z,100.00
2022-12-24T20:33:53.815Z,100.00
2022-12-24T20:36:23.468Z,100.00
2022-12-24T20:38:53.035Z,100.00
2022-12-24T20:41:23.878Z,100.00
2022-12-24T20:43:52.039Z,100.00
2022-12-24T20:46:22.246Z,100.00
2022-12-24T20:48:50.591Z,100.00
2022-12-24T20:51:24.296Z,100.00
2022-12-24T20:53:55.657Z,100.00
2022-12-24T20:56:23.972Z,100.00
2022-12-24T20:58:52.578Z,100.00
2022-12-24T21:01:24.799Z,100.00
2022-12-24T21:03:53.595Z,100.00
2022-12-24T21:06:21.988Z,100.00
2022-12-24T21:08:51.278Z,100.00
2022-12-24T21:11:38.776Z,100.00
2022-12-24T21:14:07.057Z,100.00
2022-12-24T21:16:36.197Z,100.00
2022-12-24T21:19:05.155Z,100.00
2022-12-24T21:21:34.724Z,100.00
2022-12-24T21:24:03.121Z,100.00
2022-12-24T21:26:32.395Z,100.00
2022-12-24T21:29:00.328Z,100.00
2022-12-24T21:31:28.601Z,100.00
2022-12-24T21:33:56.850Z,100.00
2022-12-24T21:36:25.326Z,100.00
2022-12-24T21:38:54.065Z,100.00
2022-12-24T21:41:24.013Z,100.00
2022-12-24T21:43:53.503Z,100.00
2022-12-24T21:46:25.076Z,100.00
2022-12-24T21:49:11.740Z,100.00
2022-12-24T21:51:40.127Z,100.00
2022-12-24T21:54:30.436Z,100.00
2022-12-24T21:57:17.232Z,100.00
2022-12-24T21:59:46.928Z,100.00
2022-12-24T22:02:16.409Z,100.00
2022-12-24T22:04:44.771Z,100.00
2022-12-24T22:07:39.331Z,100.00
2022-12-24T22:10:26.126Z,100.00
2022-12-24T22:12:54.600Z,100.00
2022-12-24T22:15:24.015Z,100.00
2022-12-24T22:17:52.053Z,100.00
2022-12-24T22:20:20.001Z,100.00
2022-12-24T22:22:48.548Z,100.00
2022-12-24T22:25:16.737Z,100.00
2022-12-24T22:27:44.707Z,100.00
2022-12-24T22:30:13.269Z,100.00
2022-12-24T22:32:42.545Z,100.00
2022-12-24T22:35:10.714Z,100.00
2022-12-24T22:37:38.727Z,100.00
2022-12-24T22:40:07.836Z,100.00
2022-12-24T22:42:35.791Z,100.00
2022-12-24T22:45:03.660Z,100.00
2022-12-24T22:47:31.893Z,100.00
2022-12-24T22:50:02.127Z,100.00
2022-12-24T22:52:33.866Z,100.00
2022-12-24T22:55:02.395Z,100.00
2022-12-24T22:57:30.485Z,100.00
2022-12-24T22:59:58.393Z,100.00
2022-12-24T23:02:28.671Z,100.00
2022-12-24T23:04:57.691Z,100.00
2022-12-24T23:07:26.840Z,100.00
2022-12-24T23:09:54.719Z,100.00
2022-12-24T23:12:42.602Z,100.00
2022-12-24T23:15:10.349Z,100.00
2022-12-24T23:17:38.220Z,100.00
2022-12-24T23:20:09.320Z,100.00
2022-12-24T23:22:38.867Z,100.00
2022-12-24T23:25:07.179Z,100.00
2022-12-24T23:27:35.110Z,100.00
2022-12-24T23:30:03.233Z,100.00
2022-12-24T23:32:31.138Z,100.00
2022-12-24T23:34:58.987Z,100.00
2022-12-24T23:37:34.586Z,100.00
2022-12-24T23:40:05.244Z,100.00
2022-12-24T23:42:33.251Z,100.00
2022-12-24T23:45:00.984Z,100.00
2022-12-24T23:47:28.830Z,100.00
2022-12-24T23:49:56.872Z,100.00
2022-12-24T23:52:24.770Z,100.00
2022-12-24T23:54:52.647Z,100.00
2022-12-24T23:57:21.829Z,100.00
2022-12-24T23:59:49.751Z,100.00
